Pope Field

Airport
ICAO code: 
KPOB
Summary
ICAO Region: 
NAM
Territory: 
Location: 
Fayetteville, North Carolina,
Coordinates: 
Aerial View: 
35° 10' 15.167" N, 79° 0' 52.203" W
Metar
Observation
KPOB 020756Z AUTO 25006KT 10SM CLR 08/04 A3004 RMK AO2 SLP175 T00820038 $
Station
Pope Air Force Base
Date/Time
2021-12-02 07:56:00
Wind direction
250°
Wind speed
06 kts
Lowest cloud amount
n/a
Temperature
8.2°C
Dew point
3.8°C
Humidity
73%
Weather condition
n/a

Description

Pope Field, formerly known as Pope Air Force Base, is a military facility located 19 km northwest of the central business district of Fayetteville, in Cumberland County, North Carolina.

Climatology

Humid “subtropical” climate (Köppen climate classification Cfa) - characterized by hot, humid summers and cool winters. Significant amounts of precipitation occur in all seasons in most areas. Winter rainfall (and sometimes snowfall) is associated with large storms that the westerlies steer from west to east. Most summer rainfall occurs during thunderstorms and occasional tropical storms (hurricanes).

Runways

Designator Length Width Surface Rops
49/229 914 18 ASPH No/No
5/23 2286 46 PEM Yes/Yes
Airport map: 
Aerial View: 

SKYbrary Partners:

Safety knowledge contributed by: